Time;durP1;ratioP1;P1;durP2;ratioP2;P2;SDS_P1;SDS_P2;PMS_P1;PMS_P2;Temp;Humidity;BMP_temperature;BMP_pressure;BME280_temperature;BME280_humidity;BME280_pressure;Samples;Min_cycle;Max_cycle;Signal;HPM_P1;HPM_P2
2021/08/27 04:01:18;;;;;;;12.13;8.23;;;15.30;99.90;;;;;;5652304;22;20581;-65
2021/08/27 04:03:45;;;;;;;8.50;7.43;;;15.30;99.90;;;;;;5062400;28;20446;-65
2021/08/27 04:06:12;;;;;;;8.77;7.90;;;15.30;99.90;;;;;;5058209;28;20459;-65
2021/08/27 04:08:40;;;;;;;9.60;8.60;;;15.30;99.90;;;;;;5058953;28;20457;-64
2021/08/27 04:11:08;;;;;;;9.23;8.20;;;15.20;99.90;;;;;;5058516;28;20474;-65
2021/08/27 04:13:35;;;;;;;9.40;7.77;;;15.20;99.90;;;;;;5056773;28;20822;-65
2021/08/27 04:16:02;;;;;;;9.03;8.13;;;15.20;99.90;;;;;;5056828;28;20451;-65
2021/08/27 04:18:30;;;;;;;9.73;8.60;;;15.10;99.90;;;;;;5056997;28;20849;-66
2021/08/27 04:20:59;;;;;;;8.93;8.10;;;15.10;99.90;;;;;;5057311;28;20470;-64
2021/08/27 04:23:26;;;;;;;8.90;7.87;;;15.10;99.90;;;;;;5056833;28;20985;-64
2021/08/27 04:25:53;;;;;;;12.37;8.20;;;15.10;99.90;;;;;;5056790;28;20457;-64
2021/08/27 04:28:19;;;;;;;8.37;7.57;;;15.10;99.90;;;;;;5056711;28;20504;-63
2021/08/27 04:30:46;;;;;;;9.60;7.40;;;15.10;99.90;;;;;;5057073;28;20478;-65
2021/08/27 04:33:13;;;;;;;7.70;6.90;;;15.10;99.90;;;;;;5056598;28;20454;-64
2021/08/27 04:35:41;;;;;;;7.60;6.80;;;15.10;99.90;;;;;;5057016;28;20455;-64
2021/08/27 04:38:08;;;;;;;8.80;7.70;;;15.10;99.90;;;;;;5056864;28;20857;-64
2021/08/27 04:40:34;;;;;;;7.83;6.90;;;15.10;99.90;;;;;;5056760;28;20482;-65
2021/08/27 04:43:01;;;;;;;8.13;6.90;;;15.10;99.90;;;;;;5056439;28;20819;-65
2021/08/27 04:45:28;;;;;;;10.77;7.30;;;15.10;99.90;;;;;;5056889;28;20458;-65
2021/08/27 04:47:55;;;;;;;7.43;6.70;;;15.10;99.90;;;;;;5056231;28;20457;-65
2021/08/27 04:50:21;;;;;;;7.20;6.43;;;15.10;99.90;;;;;;5056120;28;20446;-66
2021/08/27 04:52:49;;;;;;;8.63;7.20;;;15.10;99.90;;;;;;5056108;28;20903;-66
2021/08/27 04:55:16;;;;;;;7.90;7.10;;;15.00;99.90;;;;;;5056276;28;20565;-63
2021/08/27 04:57:43;;;;;;;8.00;6.73;;;15.00;99.90;;;;;;5056371;28;20462;-65
2021/08/27 05:00:11;;;;;;;7.93;7.33;;;15.00;99.90;;;;;;5056484;28;20459;-67
2021/08/27 05:02:38;;;;;;;8.33;7.53;;;15.00;99.90;;;;;;5056521;28;20486;-65
2021/08/27 05:05:07;;;;;;;10.90;8.20;;;14.90;99.90;;;;;;5056114;28;20454;-64
2021/08/27 05:07:33;;;;;;;7.33;6.73;;;14.90;99.90;;;;;;5056187;28;20466;-65
2021/08/27 05:10:02;;;;;;;8.83;7.23;;;15.00;99.90;;;;;;5056277;28;20459;-65
2021/08/27 05:12:29;;;;;;;8.07;7.10;;;14.90;99.90;;;;;;5055851;28;20970;-65
2021/08/27 05:14:56;;;;;;;19.67;7.80;;;14.90;99.90;;;;;;5056256;28;20457;-64
2021/08/27 05:17:22;;;;;;;9.03;7.70;;;14.90;99.90;;;;;;5055682;28;20809;-64
2021/08/27 05:19:49;;;;;;;13.73;8.10;;;15.00;99.90;;;;;;5055808;28;20451;-64
2021/08/27 05:22:17;;;;;;;10.53;8.23;;;15.00;99.90;;;;;;5055889;28;20485;-65
2021/08/27 05:24:44;;;;;;;9.23;8.13;;;15.00;99.90;;;;;;5055676;28;20459;-64
2021/08/27 05:27:13;;;;;;;10.50;9.20;;;15.10;99.90;;;;;;5056002;28;20462;-65
2021/08/27 05:29:40;;;;;;;10.57;9.57;;;15.10;99.90;;;;;;5056021;28;20867;-65
2021/08/27 05:32:08;;;;;;;11.90;9.43;;;15.10;99.90;;;;;;5055759;28;20478;-64
2021/08/27 05:34:35;;;;;;;13.40;9.50;;;15.10;99.90;;;;;;5055559;28;20806;-64
2021/08/27 05:37:02;;;;;;;12.83;10.60;;;15.20;99.90;;;;;;5055500;28;20774;-64
2021/08/27 05:39:29;;;;;;;10.97;9.97;;;15.30;99.90;;;;;;5055470;28;20462;-65
2021/08/27 05:41:56;;;;;;;11.30;10.20;;;15.30;99.90;;;;;;5055652;28;20471;-64
2021/08/27 05:44:24;;;;;;;12.60;9.93;;;15.40;99.90;;;;;;5055357;28;20478;-64
2021/08/27 05:46:51;;;;;;;11.20;9.77;;;15.40;99.90;;;;;;5054485;28;20466;-64
2021/08/27 05:49:18;;;;;;;11.70;10.60;;;15.40;99.90;;;;;;5055198;28;20458;-64
2021/08/27 05:51:45;;;;;;;13.13;11.93;;;15.40;99.90;;;;;;5055412;28;20475;-64
2021/08/27 05:54:12;;;;;;;12.67;10.50;;;15.50;99.90;;;;;;5055491;28;20458;-64
2021/08/27 05:56:39;;;;;;;11.87;10.47;;;15.50;99.90;;;;;;5055449;28;20453;-64
2021/08/27 05:59:06;;;;;;;14.67;11.10;;;15.60;99.90;;;;;;5055592;28;20458;-64
2021/08/27 06:01:34;;;;;;;11.17;10.07;;;15.70;99.90;;;;;;5055093;28;20867;-65
2021/08/27 06:04:00;;;;;;;11.33;10.23;;;15.70;99.90;;;;;;5055209;28;20478;-65
2021/08/27 06:06:28;;;;;;;10.27;9.27;;;15.80;99.90;;;;;;5055266;28;20451;-64
2021/08/27 06:08:55;;;;;;;8.50;7.73;;;15.80;99.90;;;;;;5055136;28;20450;-65
2021/08/27 06:11:22;;;;;;;12.63;9.00;;;16.00;99.90;;;;;;5055103;28;20471;-64
2021/08/27 06:13:48;;;;;;;10.20;9.20;;;16.20;99.90;;;;;;5054912;28;20497;-64
2021/08/27 06:16:15;;;;;;;9.87;7.43;;;16.60;99.90;;;;;;5054664;28;20822;-65
2021/08/27 06:18:43;;;;;;;8.10;7.40;;;16.90;99.90;;;;;;5054829;28;20460;-65
2021/08/27 06:21:10;;;;;;;8.90;7.30;;;17.20;99.90;;;;;;5054710;28;20482;-64
2021/08/27 06:23:36;;;;;;;7.67;7.00;;;17.30;99.90;;;;;;5054538;28;21008;-64
2021/08/27 06:26:03;;;;;;;7.50;6.90;;;17.20;99.90;;;;;;5054793;28;20456;-64
2021/08/27 06:28:30;;;;;;;7.77;7.07;;;17.10;99.90;;;;;;5054918;28;20458;-64
2021/08/27 06:30:57;;;;;;;7.73;7.03;;;17.10;99.90;;;;;;5054837;28;20475;-65
2021/08/27 06:33:23;;;;;;;8.67;7.80;;;17.00;99.90;;;;;;5054558;28;20447;-64
2021/08/27 06:35:52;;;;;;;8.97;8.23;;;16.90;99.90;;;;;;5054565;28;20457;-64
2021/08/27 06:38:25;;;;;;;7.07;6.47;;;17.00;99.90;;;;;;5054111;28;20451;-64
2021/08/27 06:40:54;;;;;;;7.93;7.23;;;17.10;99.90;;;;;;5053773;28;20890;-64
2021/08/27 06:43:21;;;;;;;7.30;6.80;;;17.30;99.90;;;;;;5054374;28;20482;-65
2021/08/27 06:45:48;;;;;;;7.80;7.07;;;17.30;99.90;;;;;;5055636;28;20483;-64
2021/08/27 06:48:15;;;;;;;7.67;5.77;;;17.50;99.90;;;;;;5054000;28;20811;-65
2021/08/27 06:50:42;;;;;;;5.43;4.90;;;17.80;99.90;;;;;;5054456;28;20482;-65
2021/08/27 06:53:10;;;;;;;7.60;5.00;;;18.40;99.90;;;;;;5054432;28;20458;-65
2021/08/27 06:55:37;;;;;;;5.73;5.13;;;18.40;99.90;;;;;;5054683;28;20454;-64
2021/08/27 06:58:04;;;;;;;5.30;4.80;;;18.60;99.90;;;;;;5054044;28;20474;-65
2021/08/27 07:00:31;;;;;;;4.53;4.17;;;18.50;99.90;;;;;;5054189;28;20483;-65
2021/08/27 07:02:58;;;;;;;7.70;4.50;;;18.90;99.90;;;;;;5054033;28;20463;-65
2021/08/27 07:05:25;;;;;;;5.30;4.30;;;19.50;99.90;;;;;;5054207;28;20454;-65
2021/08/27 07:07:52;;;;;;;4.37;3.97;;;19.90;99.90;;;;;;5054209;28;20458;-64
2021/08/27 07:10:20;;;;;;;3.50;3.30;;;20.70;99.90;;;;;;5054320;28;20455;-65
2021/08/27 07:12:48;;;;;;;4.50;4.17;;;21.40;99.90;;;;;;5054200;28;20851;-65
2021/08/27 07:15:16;;;;;;;4.60;3.73;;;21.80;99.90;;;;;;5054207;28;20447;-65
2021/08/27 07:17:43;;;;;;;4.60;3.60;;;22.20;99.90;;;;;;5054064;28;20451;-65
2021/08/27 07:20:11;;;;;;;3.13;2.93;;;22.90;99.90;;;;;;5054081;28;20447;-65
2021/08/27 07:22:39;;;;;;;3.40;3.10;;;23.50;99.90;;;;;;5054552;28;20459;-65
2021/08/27 07:25:07;;;;;;;3.70;3.40;;;24.20;99.90;;;;;;5054182;28;20458;-65
2021/08/27 07:27:35;;;;;;;2.83;2.73;;;24.90;99.90;;;;;;5054143;28;20481;-65
2021/08/27 07:30:02;;;;;;;3.80;2.70;;;25.50;99.90;;;;;;5053772;28;20976;-66
2021/08/27 07:32:29;;;;;;;4.27;2.10;;;26.00;99.90;;;;;;5053497;28;20478;-67
2021/08/27 07:34:55;;;;;;;3.27;2.50;;;25.90;96.40;;;;;;5053602;28;20451;-69
2021/08/27 07:37:22;;;;;;;4.60;2.30;;;25.50;96.70;;;;;;5053990;28;20457;-68
2021/08/27 07:39:49;;;;;;;2.60;2.40;;;25.00;97.60;;;;;;5053847;28;20976;-68
2021/08/27 07:42:15;;;;;;;3.73;2.43;;;24.20;98.00;;;;;;5053884;28;20479;-68
2021/08/27 07:44:44;;;;;;;2.80;2.60;;;23.00;99.00;;;;;;5054017;28;20471;-67
2021/08/27 07:47:10;;;;;;;2.50;2.30;;;22.30;99.90;;;;;;5054003;28;20451;-68
2021/08/27 07:49:37;;;;;;;3.03;2.83;;;21.50;99.90;;;;;;5053951;28;20447;-68
2021/08/27 07:52:05;;;;;;;4.80;2.67;;;21.10;99.90;;;;;;5054154;28;20475;-68
2021/08/27 07:54:32;;;;;;;5.23;3.13;;;20.80;99.90;;;;;;5053755;28;20921;-68
2021/08/27 07:56:59;;;;;;;4.47;2.60;;;20.70;99.90;;;;;;5054085;28;20452;-66
2021/08/27 07:59:26;;;;;;;2.87;2.67;;;20.50;99.90;;;;;;5053849;28;20459;-67
2021/08/27 08:01:54;;;;;;;3.80;3.17;;;20.20;99.90;;;;;;5055741;28;20981;-66
2021/08/27 08:04:21;;;;;;;3.10;2.80;;;20.10;99.90;;;;;;5054195;28;20478;-66
2021/08/27 08:06:47;;;;;;;4.40;2.80;;;20.00;99.90;;;;;;5053791;28;20455;-66
2021/08/27 08:09:14;;;;;;;3.10;2.37;;;20.30;99.90;;;;;;5055426;28;20450;-66
2021/08/27 08:11:41;;;;;;;2.10;1.87;;;21.00;99.90;;;;;;5057061;28;20984;-66
2021/08/27 08:14:08;;;;;;;3.93;2.30;;;21.40;99.90;;;;;;5057077;28;20933;-66
2021/08/27 08:16:34;;;;;;;3.90;2.63;;;22.20;99.90;;;;;;5056981;28;20969;-66
2021/08/27 08:19:03;;;;;;;3.87;3.30;;;22.20;99.90;;;;;;5057064;28;20458;-66
2021/08/27 08:21:29;;;;;;;2.07;1.93;;;23.00;99.90;;;;;;5057026;28;20471;-67
2021/08/27 08:23:56;;;;;;;1.70;1.60;;;23.40;99.90;;;;;;5056523;28;20474;-67
2021/08/27 08:26:25;;;;;;;2.97;2.00;;;23.30;99.90;;;;;;5056230;28;20938;-67
2021/08/27 08:28:53;;;;;;;2.30;1.83;;;22.90;99.90;;;;;;5056861;28;20541;-67
2021/08/27 08:31:20;;;;;;;4.17;2.03;;;22.30;99.90;;;;;;5056761;28;20477;-67
2021/08/27 08:33:49;;;;;;;3.83;2.17;;;22.20;99.90;;;;;;5057014;28;20454;-67
2021/08/27 08:36:17;;;;;;;3.47;2.30;;;22.30;99.90;;;;;;5057769;28;20451;-67
2021/08/27 08:38:44;;;;;;;4.83;2.50;;;22.20;99.90;;;;;;5056835;28;20461;-67
2021/08/27 08:41:11;;;;;;;1.67;1.57;;;21.80;99.90;;;;;;5056593;28;20474;-66
2021/08/27 08:43:38;;;;;;;3.43;2.20;;;21.40;99.90;;;;;;5056772;28;20471;-66
2021/08/27 08:46:05;;;;;;;2.03;1.60;;;21.00;99.90;;;;;;5056591;28;20972;-67
2021/08/27 08:48:34;;;;;;;4.33;1.70;;;21.10;99.90;;;;;;5056856;28;20455;-67
2021/08/27 08:51:03;;;;;;;1.87;1.73;;;21.90;99.90;;;;;;5057052;28;20471;-67
2021/08/27 08:53:34;;;;;;;2.93;1.97;;;23.10;99.90;;;;;;5057007;28;20502;-67
2021/08/27 08:56:02;;;;;;;1.83;1.63;;;23.70;99.90;;;;;;5056698;28;20528;-67
2021/08/27 08:58:29;;;;;;;2.13;1.70;;;23.80;99.90;;;;;;5056759;28;20861;-67
2021/08/27 09:00:56;;;;;;;1.77;1.67;;;23.50;99.60;;;;;;5056391;28;20483;-67
2021/08/27 09:03:22;;;;;;;1.70;1.57;;;22.50;99.90;;;;;;5056531;28;20482;-67
2021/08/27 09:05:49;;;;;;;4.40;1.70;;;22.00;99.90;;;;;;5056247;28;20504;-67
2021/08/27 09:08:16;;;;;;;2.30;1.50;;;21.70;99.90;;;;;;5056598;28;20455;-65
2021/08/27 09:10:45;;;;;;;2.13;1.93;;;21.30;99.90;;;;;;5056443;28;20982;-66
2021/08/27 09:13:12;;;;;;;2.00;1.80;;;21.70;99.90;;;;;;5056632;28;20459;-67
2021/08/27 09:15:39;;;;;;;1.40;1.30;;;22.20;99.90;;;;;;5056779;28;20458;-66
2021/08/27 09:18:08;;;;;;;6.20;1.57;;;22.90;99.90;;;;;;5057175;28;20517;-67
2021/08/27 09:20:35;;;;;;;2.67;1.93;;;22.90;99.30;;;;;;5056445;28;20981;-67
2021/08/27 09:23:05;;;;;;;2.30;1.73;;;23.20;99.30;;;;;;5055308;28;20458;-67
2021/08/27 09:25:33;;;;;;;4.70;2.60;;;23.40;99.90;;;;;;5056077;28;20460;-66
2021/08/27 09:28:10;;;;;;;1.97;1.50;;;23.20;99.20;;;;;;5056021;28;20447;-67
2021/08/27 09:30:40;;;;;;;2.97;1.90;;;22.90;99.20;;;;;;5055885;28;20485;-67
2021/08/27 09:33:12;;;;;;;3.00;1.70;;;22.50;98.70;;;;;;5055926;28;20447;-65
2021/08/27 09:35:39;;;;;;;3.17;1.80;;;21.80;99.90;;;;;;5055955;28;20451;-66
2021/08/27 09:38:15;;;;;;;2.07;1.87;;;21.70;99.90;;;;;;5055911;28;20455;-66
2021/08/27 09:40:48;;;;;;;2.40;1.60;;;22.30;99.90;;;;;;5056429;28;20479;-66
2021/08/27 09:43:23;;;;;;;2.30;1.70;;;23.30;99.90;;;;;;5055942;28;20439;-67
2021/08/27 09:45:50;;;;;;;4.47;1.80;;;23.60;98.80;;;;;;5067826;28;20439;-66
2021/08/27 09:48:17;;;;;;;5.20;1.60;;;23.70;99.70;;;;;;5068295;28;20455;-66
2021/08/27 09:50:45;;;;;;;4.63;1.83;;;23.40;99.00;;;;;;5062832;28;20467;-67
2021/08/27 09:53:13;;;;;;;2.20;2.00;;;23.30;99.20;;;;;;5056059;28;20483;-66
2021/08/27 09:55:54;;;;;;;1.67;1.57;;;23.90;99.40;;;;;;5055716;28;20462;-66
2021/08/27 09:58:22;;;;;;;2.90;1.90;;;24.80;98.00;;;;;;5055426;28;20439;-66
2021/08/27 10:01:00;;;;;;;4.57;1.67;;;26.00;94.50;;;;;;5054923;28;20996;-66
2021/08/27 10:03:27;;;;;;;2.30;1.63;;;26.40;93.40;;;;;;5055559;28;20472;-66
2021/08/27 10:05:55;;;;;;;9.87;2.50;;;26.60;92.80;;;;;;5055741;28;20451;-66
2021/08/27 10:08:24;;;;;;;2.70;1.73;;;26.50;93.40;;;;;;5055298;28;20458;-66
2021/08/27 10:10:53;;;;;;;2.73;2.40;;;26.10;91.60;;;;;;5055055;28;20467;-64
2021/08/27 10:13:22;;;;;;;2.00;1.50;;;25.50;92.80;;;;;;5054909;28;20458;-65
2021/08/27 10:15:49;;;;;;;5.73;2.73;;;25.20;93.30;;;;;;5054703;28;20953;-64
2021/08/27 10:18:16;;;;;;;3.10;1.97;;;25.00;95.10;;;;;;5054919;28;20451;-65
2021/08/27 10:20:44;;;;;;;2.73;1.80;;;25.70;93.50;;;;;;5054391;28;20816;-65
2021/08/27 10:23:14;;;;;;;4.20;2.40;;;25.70;91.30;;;;;;5054933;28;20438;-65
2021/08/27 10:25:41;;;;;;;7.00;1.97;;;25.90;91.10;;;;;;5054797;28;20455;-65
2021/08/27 10:28:09;;;;;;;2.20;2.10;;;25.40;91.20;;;;;;5054948;28;20477;-65
2021/08/27 10:31:08;;;;;;;1.97;1.87;;;25.10;91.90;;;;;;5054479;28;20475;-64
2021/08/27 10:34:07;;;;;;;2.13;2.03;;;24.50;92.20;;;;;;4974666;28;20431;-63
2021/08/27 10:36:51;;;;;;;4.17;2.33;;;23.90;93.60;;;;;;5054228;28;20451;-63
2021/08/27 10:39:41;;;;;;;2.83;2.63;;;23.60;93.90;;;;;;5054613;28;20859;-64
2021/08/27 10:42:09;;;;;;;4.30;2.17;;;23.20;93.90;;;;;;5054394;28;20627;-64
2021/08/27 10:44:51;;;;;;;4.57;3.00;;;22.80;94.40;;;;;;5054483;28;20467;-64
2021/08/27 10:47:20;;;;;;;4.30;3.00;;;22.30;95.10;;;;;;5054618;28;20435;-64
2021/08/27 10:49:59;;;;;;;2.67;2.47;;;21.90;95.90;;;;;;5054543;28;20481;-64
2021/08/27 10:52:34;;;;;;;2.90;2.70;;;21.50;96.90;;;;;;5054460;28;20506;-64
2021/08/27 10:55:17;;;;;;;2.67;2.47;;;20.90;97.70;;;;;;5054465;28;20430;-64
2021/08/27 10:57:48;;;;;;;3.77;2.97;;;20.60;99.50;;;;;;5052385;28;20946;-66
2021/08/27 11:00:51;;;;;;;5.57;3.03;;;20.20;99.90;;;;;;5055122;28;20741;-66
2021/08/27 11:03:21;;;;;;;4.77;2.97;;;19.90;99.90;;;;;;5054471;28;20446;-66
2021/08/27 11:05:49;;;;;;;4.07;3.33;;;19.70;99.90;;;;;;5054059;28;20459;-66
2021/08/27 11:08:17;;;;;;;8.73;4.10;;;19.60;99.90;;;;;;5054571;28;20825;-65
2021/08/27 11:11:05;;;;;;;4.40;3.20;;;19.50;99.90;;;;;;5054295;28;20502;-65
2021/08/27 11:13:36;;;;;;;4.93;3.53;;;19.60;99.90;;;;;;5053786;28;20455;-65
2021/08/27 11:16:24;;;;;;;5.23;3.03;;;19.70;99.90;;;;;;5054322;28;20496;-65
2021/08/27 11:18:52;;;;;;;5.20;3.17;;;19.80;99.90;;;;;;5054115;28;20439;-63
2021/08/27 11:21:31;;;;;;;3.13;2.90;;;19.90;99.90;;;;;;5054032;28;20475;-63
2021/08/27 11:24:13;;;;;;;3.53;3.20;;;20.30;99.90;;;;;;5054122;28;20471;-64
2021/08/27 11:26:40;;;;;;;3.30;2.93;;;21.20;99.90;;;;;;5053781;28;20851;-64
2021/08/27 11:29:32;;;;;;;4.63;3.60;;;21.60;99.90;;;;;;5054166;28;20451;-64
2021/08/27 11:32:08;;;;;;;4.13;3.73;;;21.30;98.70;;;;;;5053731;28;20463;-64
2021/08/27 11:34:52;;;;;;;4.30;2.80;;;21.40;99.90;;;;;;5053775;28;20431;-64
2021/08/27 11:37:19;;;;;;;3.20;2.90;;;21.20;99.90;;;;;;5054062;28;20441;-64
2021/08/27 11:39:47;;;;;;;3.63;2.90;;;21.00;99.90;;;;;;5053956;28;20462;-64
2021/08/27 11:42:15;;;;;;;4.20;3.60;;;20.80;99.90;;;;;;5053492;28;20492;-63
2021/08/27 11:44:43;;;;;;;5.40;3.47;;;20.40;99.90;;;;;;5056479;28;20479;-63
2021/08/27 11:47:11;;;;;;;4.57;4.17;;;20.10;99.90;;;;;;5057497;28;20891;-64
2021/08/27 11:49:42;;;;;;;4.87;3.37;;;19.80;99.90;;;;;;5057462;28;20459;-63
2021/08/27 11:52:22;;;;;;;3.93;3.13;;;19.50;99.90;;;;;;5058283;28;20816;-63
2021/08/27 11:54:49;;;;;;;4.40;3.30;;;19.20;99.90;;;;;;5057493;28;20447;-64
2021/08/27 11:57:21;;;;;;;5.43;3.27;;;19.00;99.90;;;;;;5057368;28;20844;-67
2021/08/27 11:59:48;;;;;;;6.07;3.50;;;19.00;99.90;;;;;;5058541;28;20439;-65
2021/08/27 12:02:17;;;;;;;4.10;3.40;;;19.00;99.90;;;;;;5057605;28;20479;-62
2021/08/27 12:04:44;;;;;;;3.73;3.13;;;19.00;99.90;;;;;;5057993;28;20820;-62
2021/08/27 12:07:14;;;;;;;3.43;3.13;;;19.00;99.90;;;;;;5057805;28;20451;-62
2021/08/27 12:09:41;;;;;;;5.03;3.33;;;19.10;99.90;;;;;;5057442;28;20420;-62
2021/08/27 12:12:29;;;;;;;2.73;2.63;;;19.20;99.90;;;;;;5057699;28;20475;-61
2021/08/27 12:14:56;;;;;;;3.53;3.23;;;19.50;99.90;;;;;;5058072;28;20436;-61
2021/08/27 12:17:25;;;;;;;3.63;2.73;;;20.00;99.90;;;;;;5057814;28;20455;-61
2021/08/27 12:19:53;;;;;;;8.23;3.30;;;20.30;99.90;;;;;;5057264;28;20458;-61
2021/08/27 12:22:24;;;;;;;6.63;2.30;;;20.70;99.90;;;;;;5057157;28;20489;-61
2021/08/27 12:24:53;;;;;;;2.70;1.73;;;21.10;99.90;;;;;;5056930;28;20983;-62
2021/08/27 12:27:20;;;;;;;2.47;2.10;;;21.60;99.90;;;;;;5057169;28;20440;-61
2021/08/27 12:30:03;;;;;;;2.93;2.50;;;21.90;99.90;;;;;;5057043;28;20449;-61
2021/08/27 12:32:30;;;;;;;3.47;2.93;;;21.90;99.90;;;;;;5057095;28;20475;-61
2021/08/27 12:34:57;;;;;;;2.90;2.60;;;22.30;99.90;;;;;;5057053;28;20458;-61
2021/08/27 12:37:25;;;;;;;2.37;2.07;;;22.70;99.90;;;;;;5057492;28;20451;-61
2021/08/27 12:39:52;;;;;;;2.10;2.00;;;23.10;99.90;;;;;;5056763;28;20934;-61
2021/08/27 12:42:20;;;;;;;2.93;2.17;;;23.30;99.90;;;;;;5056477;28;21004;-60
2021/08/27 12:45:00;;;;;;;2.60;2.03;;;23.20;99.90;;;;;;5056949;28;20502;-61
2021/08/27 12:47:35;;;;;;;3.33;2.53;;;23.10;98.60;;;;;;5056972;28;20455;-61
2021/08/27 12:50:06;;;;;;;4.83;2.37;;;23.00;99.90;;;;;;5056812;28;20467;-62
2021/08/27 12:52:34;;;;;;;3.20;3.00;;;23.00;99.90;;;;;;5056788;28;20814;-62
2021/08/27 12:55:01;;;;;;;4.27;3.50;;;23.10;99.90;;;;;;5055975;28;20862;-61
2021/08/27 12:57:28;;;;;;;3.97;2.27;;;23.10;99.90;;;;;;5056643;28;20508;-61
2021/08/27 12:59:56;;;;;;;2.73;2.23;;;23.50;99.90;;;;;;5056861;28;20462;-63
2021/08/27 13:02:23;;;;;;;2.97;2.00;;;23.80;99.30;;;;;;5056309;28;20890;-62
2021/08/27 13:04:51;;;;;;;2.40;1.90;;;23.40;98.60;;;;;;5056537;28;20475;-63
2021/08/27 13:07:23;;;;;;;2.37;2.13;;;23.40;97.40;;;;;;5056408;28;20610;-62
2021/08/27 13:09:53;;;;;;;1.90;1.80;;;23.40;96.90;;;;;;5056249;28;20497;-63
2021/08/27 13:12:30;;;;;;;2.00;1.77;;;23.70;97.40;;;;;;5055682;28;20877;-62
2021/08/27 13:14:58;;;;;;;2.60;1.63;;;23.90;96.20;;;;;;5056006;28;20447;-63
2021/08/27 13:17:25;;;;;;;2.00;1.90;;;24.00;97.60;;;;;;5055784;28;20455;-64
2021/08/27 13:19:54;;;;;;;2.10;2.00;;;24.10;95.40;;;;;;5055885;28;20929;-63
2021/08/27 13:22:24;;;;;;;2.67;2.57;;;23.90;95.30;;;;;;5056151;28;20474;-63
2021/08/27 13:24:58;;;;;;;4.10;2.37;;;23.80;94.10;;;;;;5056490;28;20569;-63
2021/08/27 13:27:26;;;;;;;2.50;2.40;;;23.60;93.70;;;;;;5055670;28;20435;-63
2021/08/27 13:29:53;;;;;;;5.73;3.30;;;23.20;94.20;;;;;;5055601;28;20489;-63
2021/08/27 13:32:22;;;;;;;2.50;2.40;;;23.30;95.30;;;;;;5055637;28;20989;-63
2021/08/27 13:34:48;;;;;;;2.60;2.40;;;23.30;96.30;;;;;;5056080;28;20463;-63
2021/08/27 13:37:15;;;;;;;2.60;2.40;;;23.20;96.70;;;;;;5055825;28;20455;-62
2021/08/27 13:39:42;;;;;;;2.70;2.20;;;23.40;95.80;;;;;;5055769;28;20463;-62
2021/08/27 13:42:10;;;;;;;2.47;2.37;;;23.50;97.50;;;;;;5055747;28;20471;-61
2021/08/27 13:44:37;;;;;;;3.27;2.97;;;23.40;95.70;;;;;;5055652;28;20478;-64
2021/08/27 13:47:04;;;;;;;2.87;2.67;;;23.60;95.90;;;;;;5055812;28;20956;-63
2021/08/27 13:49:31;;;;;;;2.77;2.53;;;23.50;95.20;;;;;;5055450;28;20451;-64
2021/08/27 13:51:57;;;;;;;2.73;2.63;;;23.20;95.40;;;;;;5055222;28;20513;-63
2021/08/27 13:54:24;;;;;;;3.20;2.90;;;23.00;97.00;;;;;;5055594;28;20509;-63
2021/08/27 13:56:51;;;;;;;3.17;2.97;;;22.90;97.90;;;;;;5054855;28;20455;-63
2021/08/27 13:59:19;;;;;;;4.23;3.10;;;22.80;97.60;;;;;;5055097;28;20447;-63
2021/08/27 14:01:46;;;;;;;3.47;3.27;;;22.30;96.50;;;;;;5055246;28;20532;-62
2021/08/27 14:04:13;;;;;;;2.97;2.73;;;22.10;96.60;;;;;;5055810;28;20457;-63
2021/08/27 14:06:39;;;;;;;2.80;2.60;;;22.10;97.10;;;;;;5053989;28;20914;-63
2021/08/27 14:09:07;;;;;;;3.13;2.93;;;22.10;98.50;;;;;;5054856;28;20451;-63
2021/08/27 14:11:34;;;;;;;3.10;2.80;;;22.10;97.80;;;;;;5054723;28;20470;-62
2021/08/27 14:14:01;;;;;;;3.00;2.73;;;22.00;99.20;;;;;;5055288;28;20451;-62
2021/08/27 14:16:29;;;;;;;4.07;2.63;;;22.00;98.40;;;;;;5054910;28;20451;-62
2021/08/27 14:18:55;;;;;;;3.40;3.20;;;22.00;98.60;;;;;;5055823;28;20458;-62
2021/08/27 14:21:22;;;;;;;3.80;3.07;;;22.10;98.80;;;;;;5054456;28;21005;-62
2021/08/27 14:23:49;;;;;;;7.10;2.90;;;22.20;97.20;;;;;;5054901;28;20450;-62
2021/08/27 14:26:15;;;;;;;4.00;3.07;;;22.40;98.10;;;;;;5054339;28;20858;-62
2021/08/27 14:28:42;;;;;;;5.50;3.50;;;22.40;97.40;;;;;;5054867;28;20455;-62
2021/08/27 14:31:10;;;;;;;3.57;3.27;;;22.40;98.30;;;;;;5054725;28;20520;-62
2021/08/27 14:33:46;;;;;;;3.93;3.63;;;22.50;98.20;;;;;;5054452;28;20451;-63
2021/08/27 14:36:13;;;;;;;3.67;3.23;;;22.60;98.50;;;;;;5054552;28;20466;-63
2021/08/27 14:38:40;;;;;;;3.20;2.90;;;22.60;97.50;;;;;;5054567;28;20459;-63
2021/08/27 14:41:07;;;;;;;3.30;3.10;;;22.70;96.70;;;;;;5054457;28;20836;-63
2021/08/27 14:43:33;;;;;;;3.67;3.47;;;22.80;96.60;;;;;;5054628;28;20458;-63
2021/08/27 14:46:00;;;;;;;4.30;2.70;;;22.80;97.20;;;;;;5054223;28;20989;-63
2021/08/27 14:48:27;;;;;;;2.70;2.50;;;23.00;97.50;;;;;;5054342;28;20853;-63
2021/08/27 14:50:55;;;;;;;2.67;2.47;;;23.00;94.80;;;;;;5054189;28;20981;-64
2021/08/27 14:53:22;;;;;;;3.37;2.57;;;23.20;95.20;;;;;;5054294;28;20964;-63
2021/08/27 14:55:49;;;;;;;2.90;2.70;;;23.40;94.70;;;;;;5054510;28;20883;-63
2021/08/27 14:58:15;;;;;;;2.73;2.50;;;23.50;96.30;;;;;;5054563;28;20455;-63
2021/08/27 15:00:42;;;;;;;3.03;2.43;;;23.50;94.60;;;;;;5054021;28;20486;-63
2021/08/27 15:03:09;;;;;;;2.87;2.33;;;23.50;95.80;;;;;;5053683;28;20914;-63
2021/08/27 15:05:35;;;;;;;2.50;2.30;;;23.50;94.70;;;;;;5054550;28;20911;-63
2021/08/27 15:08:04;;;;;;;5.37;2.50;;;23.30;96.10;;;;;;5053949;28;20455;-63
2021/08/27 15:10:33;;;;;;;2.50;2.30;;;23.20;93.90;;;;;;5054597;28;20455;-64
2021/08/27 15:12:59;;;;;;;3.83;2.47;;;23.30;94.90;;;;;;5054432;28;20451;-63
2021/08/27 15:15:26;;;;;;;4.03;2.73;;;23.30;94.30;;;;;;5054874;28;20454;-63
2021/08/27 15:17:53;;;;;;;2.23;2.13;;;23.40;95.60;;;;;;5056087;28;20810;-64
2021/08/27 15:20:20;;;;;;;2.80;2.33;;;23.30;95.10;;;;;;5058375;28;20450;-64
2021/08/27 15:22:47;;;;;;;2.93;2.33;;;23.10;94.50;;;;;;5058026;28;20849;-63
2021/08/27 15:25:15;;;;;;;2.53;2.43;;;23.00;94.30;;;;;;5057972;28;20980;-63
2021/08/27 15:27:42;;;;;;;2.83;2.60;;;22.90;93.60;;;;;;5058882;28;20459;-63
2021/08/27 15:30:09;;;;;;;3.27;2.97;;;22.90;93.80;;;;;;5057758;28;20823;-62
2021/08/27 15:32:37;;;;;;;2.30;2.20;;;22.60;94.80;;;;;;5058114;28;20477;-65
2021/08/27 15:35:04;;;;;;;3.63;2.60;;;22.40;95.70;;;;;;5058097;28;20541;-64
2021/08/27 15:37:30;;;;;;;2.90;2.70;;;22.10;94.90;;;;;;5058034;28;20458;-64
2021/08/27 15:39:57;;;;;;;2.70;2.50;;;22.10;96.10;;;;;;5058202;28;20491;-63
2021/08/27 15:42:25;;;;;;;2.90;2.70;;;22.00;96.20;;;;;;5057907;28;20471;-64
2021/08/27 15:44:52;;;;;;;4.27;3.20;;;21.90;96.30;;;;;;5057987;28;20458;-64
2021/08/27 15:47:19;;;;;;;3.03;2.70;;;21.80;96.80;;;;;;5057732;28;20471;-63
2021/08/27 15:49:47;;;;;;;3.67;2.90;;;21.70;96.20;;;;;;5057727;28;20545;-63
2021/08/27 15:52:14;;;;;;;3.43;3.20;;;21.60;96.60;;;;;;5057210;28;20470;-63
2021/08/27 15:54:41;;;;;;;3.20;3.00;;;21.40;96.30;;;;;;5057407;28;20933;-63
2021/08/27 15:57:08;;;;;;;3.10;2.90;;;21.20;96.40;;;;;;5057219;28;20454;-63
2021/08/27 15:59:36;;;;;;;4.03;3.73;;;20.80;97.40;;;;;;5056987;28;20458;-63
2021/08/27 16:02:02;;;;;;;3.37;2.90;;;20.70;98.80;;;;;;5057080;28;20486;-63
2021/08/27 16:04:29;;;;;;;3.03;2.83;;;20.50;98.20;;;;;;5057433;28;20478;-62
2021/08/27 16:06:56;;;;;;;3.40;3.00;;;20.40;99.20;;;;;;5057392;28;20524;-63
2021/08/27 16:09:23;;;;;;;3.00;2.80;;;20.30;99.20;;;;;;5057491;28;20459;-63
2021/08/27 16:11:51;;;;;;;4.03;3.17;;;20.30;99.90;;;;;;5057248;28;20529;-63
2021/08/27 16:14:18;;;;;;;4.07;3.50;;;20.30;99.90;;;;;;5057275;28;20546;-63
2021/08/27 16:16:46;;;;;;;3.30;3.07;;;20.10;99.90;;;;;;5057052;28;20501;-64
2021/08/27 16:19:13;;;;;;;4.30;3.90;;;20.10;99.90;;;;;;5057301;28;20451;-64
2021/08/27 16:21:40;;;;;;;6.30;3.60;;;19.80;99.90;;;;;;5057065;28;20478;-65
2021/08/27 16:24:07;;;;;;;3.70;3.43;;;19.90;99.90;;;;;;5056977;28;20455;-64
2021/08/27 16:26:35;;;;;;;3.50;3.20;;;19.80;99.90;;;;;;5057120;28;20471;-64
2021/08/27 16:29:04;;;;;;;3.67;3.40;;;19.80;99.90;;;;;;5055667;28;20458;-64
2021/08/27 16:31:32;;;;;;;3.50;3.20;;;19.70;99.90;;;;;;5056764;28;20541;-64
2021/08/27 16:34:00;;;;;;;5.13;3.80;;;19.70;99.90;;;;;;5056953;28;20465;-64
2021/08/27 16:36:28;;;;;;;3.30;3.00;;;19.70;99.90;;;;;;5056780;28;20450;-63
2021/08/27 16:38:55;;;;;;;3.83;3.53;;;19.70;99.90;;;;;;5056787;28;20486;-65
2021/08/27 16:41:23;;;;;;;4.93;4.50;;;19.70;99.90;;;;;;5056523;28;20515;-63
2021/08/27 16:43:50;;;;;;;3.67;3.27;;;19.60;99.90;;;;;;5056304;28;20961;-63
2021/08/27 16:46:16;;;;;;;3.27;3.03;;;19.50;99.90;;;;;;5056440;28;21036;-63
2021/08/27 16:48:43;;;;;;;3.60;3.20;;;19.50;99.90;;;;;;5056719;28;20462;-62
2021/08/27 16:51:11;;;;;;;3.37;3.17;;;19.50;99.90;;;;;;5056152;28;20829;-63
2021/08/27 16:53:38;;;;;;;3.07;2.87;;;19.50;99.90;;;;;;5056150;28;20462;-63